San Miguel — WTE9527 — position and weather

sailwx.info

Track history (hours):
 
Tides and Currents Weather Stations Pressure Air Temp Water Temp Dewpoint Dewpoint Depression Visibility Wind Speed Wind Dir Waves Ship Positions

San Miguel

Owner: BUFFALO MARINE SERVICE INC, HOUSTON, TX. More information available from US FCC via Universal Licensing System and Coast Guard Vessel Documentation Center.

Last reported at 2018-Apr-25 15:27 UTC. Time now 2018-Apr-25 21:48 UTC.
Position N 29°46' W 095°06'.

Length 10 m; draft 2.5 m.

Type: Tug. MMSI: 366941840.

Date/timePositionNaut miles runAvg speedWind from/ knotsBaromVisibWave heightAir tempDewpointWater temp
2018-Apr-25 15:27N 29°46' W 095°06'0 0.0
2018-Apr-25 15:00N 29°46' W 095°06'0 0.0
2018-Apr-25 14:31N 29°46' W 095°06'0 0.0
2018-Apr-25 14:00N 29°46' W 095°06'0 0.0
2018-Apr-25 13:30N 29°46' W 095°06'0 0.0
2018-Apr-25 13:00N 29°46' W 095°06'0 0.0
2018-Apr-25 12:31N 29°46' W 095°06'0 0.0
2018-Apr-25 12:00N 29°46' W 095°06'0 0.0
2018-Apr-25 11:29N 29°46' W 095°06'0 0.0
2018-Apr-25 11:00N 29°46' W 095°06'0 0.0
2018-Apr-25 10:23N 29°46' W 095°06'0 0.0
2018-Apr-25 09:50N 29°46' W 095°06'0 0.0
2018-Apr-25 05:58N 29°47' W 095°06'0 0.0
2018-Apr-24 13:03N 29°47' W 095°06'0 0.1
2018-Apr-24 10:09N 29°46' W 095°06'1 3.7
2018-Apr-24 09:55N 29°46' W 095°05'0 0.1
2018-Apr-24 05:05N 29°46' W 095°06'0 4.8
2018-Apr-24 05:00N 29°46' W 095°06'0 0.2
2018-Apr-24 02:33N 29°47' W 095°06'0 0.5
2018-Apr-24 02:30N 29°47' W 095°06'1 1.0
2018-Apr-24 01:45N 29°46' W 095°06'0 1.3
2018-Apr-24 01:31N 29°46' W 095°06'1 1.8
2018-Apr-24 00:53N 29°46' W 095°07'0 0.3
2018-Apr-23 23:56N 29°46' W 095°07'0 0.0
2018-Apr-23 16:30N 29°46' W 095°07'0 0.0
2018-Apr-23 15:51N 29°46' W 095°07'0 0.0
2018-Apr-23 14:48N 29°46' W 095°07'0 0.0
2018-Apr-23 14:30N 29°46' W 095°07'0 0.0
2018-Apr-23 13:52N 29°46' W 095°07'0 0.0
2018-Apr-23 13:27N 29°46' W 095°07'0 0.0
2018-Apr-23 13:00N 29°46' W 095°07'0 0.0
2018-Apr-23 12:30N 29°46' W 095°07'1 0.3
2018-Apr-23 08:08N 29°45' W 095°06'0 2.9
2018-Apr-23 08:00N 29°46' W 095°05'1 1.4
2018-Apr-23 07:15N 29°47' W 095°06'0 0.0
2018-Apr-23 06:49N 29°47' W 095°06'0 0.3
2018-Apr-23 06:29N 29°46' W 095°06'1 1.5
2018-Apr-23 05:53N 29°46' W 095°05'2 5.6
2018-Apr-23 05:30N 29°44' W 095°07'3 6.0
2018-Apr-23 04:59N 29°45' W 095°11'3 2.0
2018-Apr-23 03:44N 29°44' W 095°13'0 0.0
2018-Apr-23 03:30N 29°44' W 095°13'0 0.0
2018-Apr-23 02:57N 29°44' W 095°13'0 0.0
2018-Apr-23 02:29N 29°44' W 095°13'0 0.0
2018-Apr-23 01:40N 29°44' W 095°13'0 0.1
2018-Apr-23 01:30N 29°44' W 095°13'0 0.0
2018-Apr-23 01:00N 29°44' W 095°13'0 0.0
2018-Apr-23 00:29N 29°44' W 095°13'0 0.0
2018-Apr-22 23:56N 29°44' W 095°13'0 0.0
2018-Apr-22 22:30N 29°44' W 095°13'0 0.0
2018-Apr-22 22:00N 29°44' W 095°13'0 0.0
2018-Apr-22 21:13N 29°44' W 095°13'0 0.0
2018-Apr-22 21:00N 29°44' W 095°13'0 0.0
2018-Apr-22 20:28N 29°44' W 095°13'0 0.0
2018-Apr-22 19:53N 29°44' W 095°13'0 0.0
2018-Apr-22 19:24N 29°44' W 095°13'0 0.0
2018-Apr-22 18:47N 29°44' W 095°13'0 0.0
2018-Apr-22 18:26N 29°44' W 095°13'0 0.0
2018-Apr-22 17:59N 29°44' W 095°13'0 0.0
2018-Apr-22 16:38N 29°44' W 095°13'0 0.0
2018-Apr-22 16:30N 29°44' W 095°13'2 1.9
2018-Apr-22 15:25N 29°45' W 095°11'2 4.9
2018-Apr-22 15:00N 29°44' W 095°09'3 4.8
2018-Apr-22 14:26N 29°45' W 095°06'1 2.7
2018-Apr-22 13:59N 29°46' W 095°05'2 4.6
2018-Apr-22 13:28N 29°44' W 095°03'0 0.6
2018-Apr-22 13:00N 29°44' W 095°03'0 0.0
2018-Apr-22 12:29N 29°44' W 095°03'0 0.0
2018-Apr-22 05:35N 29°44' W 095°03'4 0.7
2018-Apr-22 00:09N 29°47' W 095°06'0 0.0
2018-Apr-21 23:19N 29°46' W 095°06'0 0.1
2018-Apr-21 23:00N 29°47' W 095°06'0 0.0
2018-Apr-21 22:30N 29°47' W 095°06'0 0.0
2018-Apr-21 22:00N 29°47' W 095°06'0 0.0
2018-Apr-21 21:30N 29°47' W 095°06'0 0.0
2018-Apr-21 21:00N 29°47' W 095°06'0 0.0
2018-Apr-21 20:30N 29°47' W 095°06'0 0.0
2018-Apr-21 20:00N 29°47' W 095°06'0 0.0
2018-Apr-21 19:30N 29°47' W 095°06'0 0.0
2018-Apr-21 19:00N 29°47' W 095°06'0 0.0
2018-Apr-21 18:30N 29°47' W 095°06'0 0.0
2018-Apr-21 18:00N 29°47' W 095°06'0 0.0
2018-Apr-21 17:30N 29°47' W 095°06'0 0.0
2018-Apr-21 17:00N 29°47' W 095°06'0 0.0
2018-Apr-21 16:30N 29°47' W 095°06'0 0.0
2018-Apr-21 16:00N 29°47' W 095°06'0 0.0
2018-Apr-21 15:30N 29°47' W 095°06'0 0.0
2018-Apr-21 15:00N 29°47' W 095°06'0 0.0
2018-Apr-21 14:30N 29°47' W 095°06'0 0.0
2018-Apr-21 14:00N 29°47' W 095°06'0 0.0
2018-Apr-21 13:30N 29°47' W 095°06'0 0.0
2018-Apr-21 13:00N 29°47' W 095°06'0 0.4
2018-Apr-21 12:18N 29°46' W 095°06'1 2.7
2018-Apr-21 12:00N 29°46' W 095°05'3 6.4
2018-Apr-21 11:29N 29°44' W 095°09'0 0.3
2018-Apr-21 10:34N 29°44' W 095°09'0 0.0
2018-Apr-21 06:55N 29°44' W 095°09'0 0.0
2018-Apr-21 06:28N 29°44' W 095°09'0 0.0
2018-Apr-21 06:00N 29°44' W 095°09'0 0.0
2018-Apr-21 05:29N 29°44' W 095°09'0 0.0
2018-Apr-21 04:59N 29°44' W 095°09'0 0.0
2018-Apr-21 04:28N 29°44' W 095°09'0 0.0
2018-Apr-21 04:00N 29°44' W 095°09'0 0.0
2018-Apr-21 03:29N 29°44' W 095°09'1 1.3
2018-Apr-21 02:59N 29°44' W 095°08'3 5.0
2018-Apr-21 02:28N 29°45' W 095°06'2 4.2
2018-Apr-21 02:00N 29°45' W 095°04'3 5.4
2018-Apr-21 01:29N 29°43' W 095°01'3 5.8
2018-Apr-21 01:00N 29°41' W 094°59'3 6.0
2018-Apr-21 00:30N 29°38' W 094°58'2 4.1
2018-Apr-21 00:00N 29°37' W 094°60'1 1.7
2018-Apr-20 23:30N 29°37' W 095°01'0 0.0
2018-Apr-20 23:00N 29°37' W 095°01'0 0.0
2018-Apr-20 22:30N 29°37' W 095°01'0 0.0
2018-Apr-20 22:00N 29°37' W 095°01'0 0.0
2018-Apr-20 21:30N 29°37' W 095°01'0 0.0
2018-Apr-20 21:00N 29°37' W 095°01'0 0.0
2018-Apr-20 20:30N 29°37' W 095°01'0 0.0
2018-Apr-20 20:00N 29°37' W 095°01'0 0.0
2018-Apr-20 19:29N 29°37' W 095°01'0 0.0
2018-Apr-20 19:00N 29°37' W 095°01'0 0.0
2018-Apr-20 18:30N 29°37' W 095°01'0 0.0
2018-Apr-20 18:00N 29°37' W 095°01'0 0.0
2018-Apr-20 17:30N 29°37' W 095°01'0 0.0
2018-Apr-20 17:00N 29°37' W 095°01'1 1.2
2018-Apr-20 16:30N 29°37' W 094°60'0 0.0
2018-Apr-20 16:00N 29°37' W 094°60'0 0.0
2018-Apr-20 15:30N 29°37' W 094°60'0 0.0
2018-Apr-20 15:00N 29°37' W 094°60'0 0.1
2018-Apr-20 14:30N 29°37' W 094°60'0 0.0
2018-Apr-20 14:00N 29°37' W 094°60'1 2.5
2018-Apr-20 13:30N 29°37' W 094°58'3 5.5
2018-Apr-20 13:00N 29°35' W 094°56'3 6.3
2018-Apr-20 12:29N 29°32' W 094°54'12 6.6
2018-Apr-20 10:42N 29°22' W 094°48'3 2.6
2018-Apr-20 09:28N 29°21' W 094°44'0 0.1
2018-Apr-20 07:51N 29°21' W 094°44'0 0.0
2018-Apr-20 07:28N 29°21' W 094°44'0 0.0
2018-Apr-20 06:57N 29°21' W 094°44'0 0.0
2018-Apr-20 06:28N 29°21' W 094°44'4 0.5
2018-Apr-19 22:14N 29°23' W 094°48'1 5.2
2018-Apr-19 21:59N 29°24' W 094°49'3 5.3
2018-Apr-19 21:28N 29°26' W 094°50'3 5.5
2018-Apr-19 21:00N 29°29' W 094°52'3 5.6
2018-Apr-19 20:30N 29°31' W 094°53'3 5.5
2018-Apr-19 20:00N 29°33' W 094°55'3 5.7
2018-Apr-19 19:30N 29°36' W 094°57'3 5.8
2018-Apr-19 19:00N 29°39' W 094°58'3 5.5
2018-Apr-19 18:30N 29°41' W 094°59'3 5.6
2018-Apr-19 18:00N 29°43' W 095°01'3 5.5
2018-Apr-19 17:23N 29°45' W 095°04'2 4.8
2018-Apr-19 17:00N 29°45' W 095°06'3 5.4
2018-Apr-19 16:29N 29°44' W 095°09'0 0.0
2018-Apr-19 06:59N 29°44' W 095°09'3 1.8
2018-Apr-19 05:09N 29°47' W 095°06'0 0.0
2018-Apr-19 04:56N 29°47' W 095°06'0 0.0
2018-Apr-19 04:22N 29°47' W 095°06'0 0.0
2018-Apr-19 03:57N 29°47' W 095°06'0 0.0
2018-Apr-19 02:24N 29°47' W 095°06'0 0.0
2018-Apr-19 01:52N 29°47' W 095°06'0 0.0
2018-Apr-19 01:28N 29°47' W 095°06'0 0.0
2018-Apr-19 00:58N 29°47' W 095°06'0 0.0
2018-Apr-19 00:30N 29°47' W 095°06'0 0.0
2018-Apr-19 00:00N 29°47' W 095°06'0 0.2
2018-Apr-18 23:19N 29°46' W 095°06'0 0.0
2018-Apr-18 22:58N 29°46' W 095°06'0 0.0
2018-Apr-18 22:30N 29°46' W 095°06'1 1.2
2018-Apr-18 21:55N 29°46' W 095°05'2 5.2
2018-Apr-18 21:30N 29°44' W 095°07'3 6.1
2018-Apr-18 21:00N 29°45' W 095°11'5 1.3
2018-Apr-18 16:56N 29°44' W 095°17'0 0.0
2018-Apr-18 14:38N 29°44' W 095°17'0 0.5
2018-Apr-18 14:14N 29°44' W 095°17'2 5.1
2018-Apr-18 13:53N 29°43' W 095°14'3 5.6
2018-Apr-18 13:21N 29°45' W 095°12'1 2.1
2018-Apr-18 13:00N 29°45' W 095°11'0 0.0
2018-Apr-18 09:49N 29°45' W 095°11'0 0.1
2018-Apr-18 09:30N 29°45' W 095°11'0 0.0
2018-Apr-18 08:59N 29°45' W 095°11'0 0.1
2018-Apr-18 08:06N 29°45' W 095°11'0 3.8
2018-Apr-18 07:59N 29°45' W 095°10'3 4.5
2018-Apr-18 07:18N 29°44' W 095°07'2 5.1
2018-Apr-18 06:54N 29°46' W 095°05'3 5.2
2018-Apr-18 06:22N 29°44' W 095°03'2 4.6
2018-Apr-18 05:58N 29°43' W 095°01'2 5.2
2018-Apr-18 05:30N 29°41' W 094°59'3 5.3
2018-Apr-18 05:00N 29°39' W 094°58'2 3.7
2018-Apr-18 04:30N 29°37' W 094°59'2 3.5
2018-Apr-18 04:00N 29°37' W 095°01'0 0.0
2018-Apr-18 03:30N 29°37' W 095°01'0 0.0
2018-Apr-18 03:00N 29°37' W 095°01'0 0.0
2018-Apr-18 02:30N 29°37' W 095°01'0 0.0
2018-Apr-18 02:00N 29°37' W 095°01'0 0.0
2018-Apr-18 01:30N 29°37' W 095°01'0 0.0
2018-Apr-18 01:00N 29°37' W 095°01'0 0.0
2018-Apr-18 00:30N 29°37' W 095°01'0 0.0
2018-Apr-18 00:00N 29°37' W 095°01'0 0.1
2018-Apr-17 23:30N 29°37' W 095°01'1 1.3
2018-Apr-17 23:00N 29°37' W 095°01'0 0.0
2018-Apr-17 22:30N 29°37' W 095°01'1 1.3
2018-Apr-17 22:00N 29°37' W 095°01'3 5.4
2018-Apr-17 21:30N 29°37' W 094°58'3 5.5
2018-Apr-17 21:00N 29°40' W 094°59'3 5.4
2018-Apr-17 20:30N 29°42' W 095°00'2 5.0
2018-Apr-17 20:00N 29°44' W 095°02'3 5.9
2018-Apr-17 19:29N 29°46' W 095°05'3 5.5
2018-Apr-17 19:00N 29°44' W 095°07'3 5.9
2018-Apr-17 18:28N 29°45' W 095°11'3 5.9
2018-Apr-17 17:56N 29°43' W 095°14'2 4.4
2018-Apr-17 17:28N 29°44' W 095°17'0 0.0
2018-Apr-17 15:23N 29°44' W 095°17'2 2.3
2018-Apr-17 14:40N 29°43' W 095°15'0 0.0
2018-Apr-17 14:30N 29°43' W 095°15'0 0.0
2018-Apr-17 14:00N 29°43' W 095°15'0 0.0
2018-Apr-17 13:30N 29°43' W 095°15'0 0.0
2018-Apr-17 13:00N 29°43' W 095°15'0 0.0
2018-Apr-17 12:30N 29°43' W 095°15'0 0.0
2018-Apr-17 12:00N 29°43' W 095°15'0 0.0
2018-Apr-17 11:30N 29°43' W 095°15'0 0.0
2018-Apr-17 11:00N 29°43' W 095°15'0 0.0
2018-Apr-17 10:30N 29°43' W 095°15'0 0.0
2018-Apr-17 10:00N 29°43' W 095°15'0 0.0
2018-Apr-17 09:30N 29°43' W 095°15'0 0.0
2018-Apr-17 09:00N 29°43' W 095°15'0 0.0
2018-Apr-17 08:30N 29°43' W 095°15'0 0.0
2018-Apr-17 08:00N 29°43' W 095°15'0 0.0
2018-Apr-17 07:30N 29°43' W 095°15'0 0.0
2018-Apr-17 07:00N 29°43' W 095°15'0 0.0
2018-Apr-17 06:30N 29°43' W 095°15'0 0.0
2018-Apr-17 06:00N 29°43' W 095°15'0 0.0
2018-Apr-17 05:30N 29°43' W 095°15'1 1.3
2018-Apr-17 04:59N 29°44' W 095°15'2 0.1
2018-Apr-16 14:03N 29°45' W 095°17'0 1.7
2018-Apr-16 13:55N 29°45' W 095°17'3 0.3
2018-Apr-16 03:41N 29°43' W 095°15'2 5.3
2018-Apr-16 03:24N 29°43' W 095°13'2 5.5
2018-Apr-16 03:00N 29°45' W 095°11'3 5.6
2018-Apr-16 02:27N 29°44' W 095°08'3 5.8
2018-Apr-16 01:58N 29°46' W 095°05'3 5.7
2018-Apr-16 01:29N 29°44' W 095°03'2 5.1
2018-Apr-16 01:00N 29°42' W 095°01'1 2.9
2018-Apr-16 00:30N 29°41' W 095°00'0 1.0
2018-Apr-16 00:00N 29°41' W 095°01'0 0.0
2018-Apr-15 23:30N 29°41' W 095°01'0 0.0
2018-Apr-15 23:00N 29°41' W 095°01'0 0.0
2018-Apr-15 22:30N 29°41' W 095°01'0 0.0
2018-Apr-15 22:00N 29°41' W 095°01'0 0.0
2018-Apr-15 21:30N 29°41' W 095°01'0 0.0
2018-Apr-15 21:00N 29°41' W 095°01'0 0.0
2018-Apr-15 20:30N 29°41' W 095°01'0 0.0
2018-Apr-15 20:00N 29°41' W 095°01'0 0.0
2018-Apr-15 19:30N 29°41' W 095°01'1 1.6
2018-Apr-15 19:00N 29°41' W 094°60'2 4.1
2018-Apr-15 18:30N 29°43' W 095°01'5 5.7
2018-Apr-15 17:41N 29°46' W 095°05'1 5.7
2018-Apr-15 17:28N 29°45' W 095°06'0 0.6
2018-Apr-15 17:00N 29°45' W 095°06'0 0.0
2018-Apr-15 16:28N 29°45' W 095°06'0 0.0
2018-Apr-15 15:59N 29°45' W 095°06'0 0.0
2018-Apr-15 15:30N 29°45' W 095°06'  
Track history (hours):
 
Tides and Currents Weather Stations Pressure Air Temp Water Temp Dewpoint Dewpoint Depression Visibility Wind Speed Wind Dir Waves Ship Positions

San Miguel

Owner: BUFFALO MARINE SERVICE INC, HOUSTON, TX. More information available from US FCC via Universal Licensing System and Coast Guard Vessel Documentation Center.

Last reported at 2018-Apr-25 15:27 UTC. Time now 2018-Apr-25 21:48 UTC.
Position N 29°46' W 095°06'.

Length 10 m; draft 2.5 m.

Type: Tug. MMSI: 366941840.

Date/timePositionNaut miles runAvg speedWind from/ knotsBaromVisibWave heightAir tempDewpointWater temp
2018-Apr-25 15:27N 29°46' W 095°06'0 0.0
2018-Apr-25 15:00N 29°46' W 095°06'0 0.0
2018-Apr-25 14:31N 29°46' W 095°06'0 0.0
2018-Apr-25 14:00N 29°46' W 095°06'0 0.0
2018-Apr-25 13:30N 29°46' W 095°06'0 0.0
2018-Apr-25 13:00N 29°46' W 095°06'0 0.0
2018-Apr-25 12:31N 29°46' W 095°06'0 0.0
2018-Apr-25 12:00N 29°46' W 095°06'0 0.0
2018-Apr-25 11:29N 29°46' W 095°06'0 0.0
2018-Apr-25 11:00N 29°46' W 095°06'0 0.0
2018-Apr-25 10:23N 29°46' W 095°06'0 0.0
2018-Apr-25 09:50N 29°46' W 095°06'0 0.0
2018-Apr-25 05:58N 29°47' W 095°06'0 0.0
2018-Apr-24 13:03N 29°47' W 095°06'0 0.1
2018-Apr-24 10:09N 29°46' W 095°06'1 3.7
2018-Apr-24 09:55N 29°46' W 095°05'0 0.1
2018-Apr-24 05:05N 29°46' W 095°06'0 4.8
2018-Apr-24 05:00N 29°46' W 095°06'0 0.2
2018-Apr-24 02:33N 29°47' W 095°06'0 0.5
2018-Apr-24 02:30N 29°47' W 095°06'1 1.0
2018-Apr-24 01:45N 29°46' W 095°06'0 1.3
2018-Apr-24 01:31N 29°46' W 095°06'1 1.8
2018-Apr-24 00:53N 29°46' W 095°07'0 0.3
2018-Apr-23 23:56N 29°46' W 095°07'0 0.0
2018-Apr-23 16:30N 29°46' W 095°07'0 0.0
2018-Apr-23 15:51N 29°46' W 095°07'0 0.0
2018-Apr-23 14:48N 29°46' W 095°07'0 0.0
2018-Apr-23 14:30N 29°46' W 095°07'0 0.0
2018-Apr-23 13:52N 29°46' W 095°07'0 0.0
2018-Apr-23 13:27N 29°46' W 095°07'0 0.0
2018-Apr-23 13:00N 29°46' W 095°07'0 0.0
2018-Apr-23 12:30N 29°46' W 095°07'1 0.3
2018-Apr-23 08:08N 29°45' W 095°06'0 2.9
2018-Apr-23 08:00N 29°46' W 095°05'1 1.4
2018-Apr-23 07:15N 29°47' W 095°06'0 0.0
2018-Apr-23 06:49N 29°47' W 095°06'0 0.3
2018-Apr-23 06:29N 29°46' W 095°06'1 1.5
2018-Apr-23 05:53N 29°46' W 095°05'2 5.6
2018-Apr-23 05:30N 29°44' W 095°07'3 6.0
2018-Apr-23 04:59N 29°45' W 095°11'3 2.0
2018-Apr-23 03:44N 29°44' W 095°13'0 0.0
2018-Apr-23 03:30N 29°44' W 095°13'0 0.0
2018-Apr-23 02:57N 29°44' W 095°13'0 0.0
2018-Apr-23 02:29N 29°44' W 095°13'0 0.0
2018-Apr-23 01:40N 29°44' W 095°13'0 0.1
2018-Apr-23 01:30N 29°44' W 095°13'0 0.0
2018-Apr-23 01:00N 29°44' W 095°13'0 0.0
2018-Apr-23 00:29N 29°44' W 095°13'0 0.0
2018-Apr-22 23:56N 29°44' W 095°13'0 0.0
2018-Apr-22 22:30N 29°44' W 095°13'0 0.0
2018-Apr-22 22:00N 29°44' W 095°13'0 0.0
2018-Apr-22 21:13N 29°44' W 095°13'0 0.0
2018-Apr-22 21:00N 29°44' W 095°13'0 0.0
2018-Apr-22 20:28N 29°44' W 095°13'0 0.0
2018-Apr-22 19:53N 29°44' W 095°13'0 0.0
2018-Apr-22 19:24N 29°44' W 095°13'0 0.0
2018-Apr-22 18:47N 29°44' W 095°13'0 0.0
2018-Apr-22 18:26N 29°44' W 095°13'0 0.0
2018-Apr-22 17:59N 29°44' W 095°13'0 0.0
2018-Apr-22 16:38N 29°44' W 095°13'0 0.0
2018-Apr-22 16:30N 29°44' W 095°13'2 1.9
2018-Apr-22 15:25N 29°45' W 095°11'2 4.9
2018-Apr-22 15:00N 29°44' W 095°09'3 4.8
2018-Apr-22 14:26N 29°45' W 095°06'1 2.7
2018-Apr-22 13:59N 29°46' W 095°05'2 4.6
2018-Apr-22 13:28N 29°44' W 095°03'0 0.6
2018-Apr-22 13:00N 29°44' W 095°03'0 0.0
2018-Apr-22 12:29N 29°44' W 095°03'0 0.0
2018-Apr-22 05:35N 29°44' W 095°03'4 0.7
2018-Apr-22 00:09N 29°47' W 095°06'0 0.0
2018-Apr-21 23:19N 29°46' W 095°06'0 0.1
2018-Apr-21 23:00N 29°47' W 095°06'0 0.0
2018-Apr-21 22:30N 29°47' W 095°06'0 0.0
2018-Apr-21 22:00N 29°47' W 095°06'0 0.0
2018-Apr-21 21:30N 29°47' W 095°06'0 0.0
2018-Apr-21 21:00N 29°47' W 095°06'0 0.0
2018-Apr-21 20:30N 29°47' W 095°06'0 0.0
2018-Apr-21 20:00N 29°47' W 095°06'0 0.0
2018-Apr-21 19:30N 29°47' W 095°06'0 0.0
2018-Apr-21 19:00N 29°47' W 095°06'0 0.0
2018-Apr-21 18:30N 29°47' W 095°06'0 0.0
2018-Apr-21 18:00N 29°47' W 095°06'0 0.0
2018-Apr-21 17:30N 29°47' W 095°06'0 0.0
2018-Apr-21 17:00N 29°47' W 095°06'0 0.0
2018-Apr-21 16:30N 29°47' W 095°06'0 0.0
2018-Apr-21 16:00N 29°47' W 095°06'0 0.0
2018-Apr-21 15:30N 29°47' W 095°06'0 0.0
2018-Apr-21 15:00N 29°47' W 095°06'0 0.0
2018-Apr-21 14:30N 29°47' W 095°06'0 0.0
2018-Apr-21 14:00N 29°47' W 095°06'0 0.0
2018-Apr-21 13:30N 29°47' W 095°06'0 0.0
2018-Apr-21 13:00N 29°47' W 095°06'0 0.4
2018-Apr-21 12:18N 29°46' W 095°06'1 2.7
2018-Apr-21 12:00N 29°46' W 095°05'3 6.4
2018-Apr-21 11:29N 29°44' W 095°09'0 0.3
2018-Apr-21 10:34N 29°44' W 095°09'0 0.0
2018-Apr-21 06:55N 29°44' W 095°09'0 0.0
2018-Apr-21 06:28N 29°44' W 095°09'0 0.0
2018-Apr-21 06:00N 29°44' W 095°09'0 0.0
2018-Apr-21 05:29N 29°44' W 095°09'0 0.0
2018-Apr-21 04:59N 29°44' W 095°09'0 0.0
2018-Apr-21 04:28N 29°44' W 095°09'0 0.0
2018-Apr-21 04:00N 29°44' W 095°09'0 0.0
2018-Apr-21 03:29N 29°44' W 095°09'1 1.3
2018-Apr-21 02:59N 29°44' W 095°08'3 5.0
2018-Apr-21 02:28N 29°45' W 095°06'2 4.2
2018-Apr-21 02:00N 29°45' W 095°04'3 5.4
2018-Apr-21 01:29N 29°43' W 095°01'3 5.8
2018-Apr-21 01:00N 29°41' W 094°59'3 6.0
2018-Apr-21 00:30N 29°38' W 094°58'2 4.1
2018-Apr-21 00:00N 29°37' W 094°60'1 1.7
2018-Apr-20 23:30N 29°37' W 095°01'0 0.0
2018-Apr-20 23:00N 29°37' W 095°01'0 0.0
2018-Apr-20 22:30N 29°37' W 095°01'0 0.0
2018-Apr-20 22:00N 29°37' W 095°01'0 0.0
2018-Apr-20 21:30N 29°37' W 095°01'0 0.0
2018-Apr-20 21:00N 29°37' W 095°01'0 0.0
2018-Apr-20 20:30N 29°37' W 095°01'0 0.0
2018-Apr-20 20:00N 29°37' W 095°01'0 0.0
2018-Apr-20 19:29N 29°37' W 095°01'0 0.0
2018-Apr-20 19:00N 29°37' W 095°01'0 0.0
2018-Apr-20 18:30N 29°37' W 095°01'0 0.0
2018-Apr-20 18:00N 29°37' W 095°01'0 0.0
2018-Apr-20 17:30N 29°37' W 095°01'0 0.0
2018-Apr-20 17:00N 29°37' W 095°01'1 1.2
2018-Apr-20 16:30N 29°37' W 094°60'0 0.0
2018-Apr-20 16:00N 29°37' W 094°60'0 0.0
2018-Apr-20 15:30N 29°37' W 094°60'0 0.0
2018-Apr-20 15:00N 29°37' W 094°60'0 0.1
2018-Apr-20 14:30N 29°37' W 094°60'0 0.0
2018-Apr-20 14:00N 29°37' W 094°60'1 2.5
2018-Apr-20 13:30N 29°37' W 094°58'3 5.5
2018-Apr-20 13:00N 29°35' W 094°56'3 6.3
2018-Apr-20 12:29N 29°32' W 094°54'12 6.6
2018-Apr-20 10:42N 29°22' W 094°48'3 2.6
2018-Apr-20 09:28N 29°21' W 094°44'0 0.1
2018-Apr-20 07:51N 29°21' W 094°44'0 0.0
2018-Apr-20 07:28N 29°21' W 094°44'0 0.0
2018-Apr-20 06:57N 29°21' W 094°44'0 0.0
2018-Apr-20 06:28N 29°21' W 094°44'4 0.5
2018-Apr-19 22:14N 29°23' W 094°48'1 5.2
2018-Apr-19 21:59N 29°24' W 094°49'3 5.3
2018-Apr-19 21:28N 29°26' W 094°50'3 5.5
2018-Apr-19 21:00N 29°29' W 094°52'3 5.6
2018-Apr-19 20:30N 29°31' W 094°53'3 5.5
2018-Apr-19 20:00N 29°33' W 094°55'3 5.7
2018-Apr-19 19:30N 29°36' W 094°57'3 5.8
2018-Apr-19 19:00N 29°39' W 094°58'3 5.5
2018-Apr-19 18:30N 29°41' W 094°59'3 5.6
2018-Apr-19 18:00N 29°43' W 095°01'3 5.5
2018-Apr-19 17:23N 29°45' W 095°04'2 4.8
2018-Apr-19 17:00N 29°45' W 095°06'3 5.4
2018-Apr-19 16:29N 29°44' W 095°09'0 0.0
2018-Apr-19 06:59N 29°44' W 095°09'3 1.8
2018-Apr-19 05:09N 29°47' W 095°06'0 0.0
2018-Apr-19 04:56N 29°47' W 095°06'0 0.0
2018-Apr-19 04:22N 29°47' W 095°06'0 0.0
2018-Apr-19 03:57N 29°47' W 095°06'0 0.0
2018-Apr-19 02:24N 29°47' W 095°06'0 0.0
2018-Apr-19 01:52N 29°47' W 095°06'0 0.0
2018-Apr-19 01:28N 29°47' W 095°06'0 0.0
2018-Apr-19 00:58N 29°47' W 095°06'0 0.0
2018-Apr-19 00:30N 29°47' W 095°06'0 0.0
2018-Apr-19 00:00N 29°47' W 095°06'0 0.2
2018-Apr-18 23:19N 29°46' W 095°06'0 0.0
2018-Apr-18 22:58N 29°46' W 095°06'0 0.0
2018-Apr-18 22:30N 29°46' W 095°06'1 1.2
2018-Apr-18 21:55N 29°46' W 095°05'2 5.2
2018-Apr-18 21:30N 29°44' W 095°07'3 6.1
2018-Apr-18 21:00N 29°45' W 095°11'5 1.3
2018-Apr-18 16:56N 29°44' W 095°17'0 0.0
2018-Apr-18 14:38N 29°44' W 095°17'0 0.5
2018-Apr-18 14:14N 29°44' W 095°17'2 5.1
2018-Apr-18 13:53N 29°43' W 095°14'3 5.6
2018-Apr-18 13:21N 29°45' W 095°12'1 2.1
2018-Apr-18 13:00N 29°45' W 095°11'0 0.0
2018-Apr-18 09:49N 29°45' W 095°11'0 0.1
2018-Apr-18 09:30N 29°45' W 095°11'0 0.0
2018-Apr-18 08:59N 29°45' W 095°11'0 0.1
2018-Apr-18 08:06N 29°45' W 095°11'0 3.8
2018-Apr-18 07:59N 29°45' W 095°10'3 4.5
2018-Apr-18 07:18N 29°44' W 095°07'2 5.1
2018-Apr-18 06:54N 29°46' W 095°05'3 5.2
2018-Apr-18 06:22N 29°44' W 095°03'2 4.6
2018-Apr-18 05:58N 29°43' W 095°01'2 5.2
2018-Apr-18 05:30N 29°41' W 094°59'3 5.3
2018-Apr-18 05:00N 29°39' W 094°58'2 3.7
2018-Apr-18 04:30N 29°37' W 094°59'2 3.5
2018-Apr-18 04:00N 29°37' W 095°01'0 0.0
2018-Apr-18 03:30N 29°37' W 095°01'0 0.0
2018-Apr-18 03:00N 29°37' W 095°01'0 0.0
2018-Apr-18 02:30N 29°37' W 095°01'0 0.0
2018-Apr-18 02:00N 29°37' W 095°01'0 0.0
2018-Apr-18 01:30N 29°37' W 095°01'0 0.0
2018-Apr-18 01:00N 29°37' W 095°01'0 0.0
2018-Apr-18 00:30N 29°37' W 095°01'0 0.0
2018-Apr-18 00:00N 29°37' W 095°01'0 0.1
2018-Apr-17 23:30N 29°37' W 095°01'1 1.3
2018-Apr-17 23:00N 29°37' W 095°01'0 0.0
2018-Apr-17 22:30N 29°37' W 095°01'1 1.3
2018-Apr-17 22:00N 29°37' W 095°01'3 5.4
2018-Apr-17 21:30N 29°37' W 094°58'3 5.5
2018-Apr-17 21:00N 29°40' W 094°59'3 5.4
2018-Apr-17 20:30N 29°42' W 095°00'2 5.0
2018-Apr-17 20:00N 29°44' W 095°02'3 5.9
2018-Apr-17 19:29N 29°46' W 095°05'3 5.5
2018-Apr-17 19:00N 29°44' W 095°07'3 5.9
2018-Apr-17 18:28N 29°45' W 095°11'3 5.9
2018-Apr-17 17:56N 29°43' W 095°14'2 4.4
2018-Apr-17 17:28N 29°44' W 095°17'0 0.0
2018-Apr-17 15:23N 29°44' W 095°17'2 2.3
2018-Apr-17 14:40N 29°43' W 095°15'0 0.0
2018-Apr-17 14:30N 29°43' W 095°15'0 0.0
2018-Apr-17 14:00N 29°43' W 095°15'0 0.0
2018-Apr-17 13:30N 29°43' W 095°15'0 0.0
2018-Apr-17 13:00N 29°43' W 095°15'0 0.0
2018-Apr-17 12:30N 29°43' W 095°15'0 0.0
2018-Apr-17 12:00N 29°43' W 095°15'0 0.0
2018-Apr-17 11:30N 29°43' W 095°15'0 0.0
2018-Apr-17 11:00N 29°43' W 095°15'0 0.0
2018-Apr-17 10:30N 29°43' W 095°15'0 0.0
2018-Apr-17 10:00N 29°43' W 095°15'0 0.0
2018-Apr-17 09:30N 29°43' W 095°15'0 0.0
2018-Apr-17 09:00N 29°43' W 095°15'0 0.0
2018-Apr-17 08:30N 29°43' W 095°15'0 0.0
2018-Apr-17 08:00N 29°43' W 095°15'0 0.0
2018-Apr-17 07:30N 29°43' W 095°15'0 0.0
2018-Apr-17 07:00N 29°43' W 095°15'0 0.0
2018-Apr-17 06:30N 29°43' W 095°15'0 0.0
2018-Apr-17 06:00N 29°43' W 095°15'0 0.0
2018-Apr-17 05:30N 29°43' W 095°15'1 1.3
2018-Apr-17 04:59N 29°44' W 095°15'2 0.1
2018-Apr-16 14:03N 29°45' W 095°17'0 1.7
2018-Apr-16 13:55N 29°45' W 095°17'3 0.3
2018-Apr-16 03:41N 29°43' W 095°15'2 5.3
2018-Apr-16 03:24N 29°43' W 095°13'2 5.5
2018-Apr-16 03:00N 29°45' W 095°11'3 5.6
2018-Apr-16 02:27N 29°44' W 095°08'3 5.8
2018-Apr-16 01:58N 29°46' W 095°05'3 5.7
2018-Apr-16 01:29N 29°44' W 095°03'2 5.1
2018-Apr-16 01:00N 29°42' W 095°01'1 2.9
2018-Apr-16 00:30N 29°41' W 095°00'0 1.0
2018-Apr-16 00:00N 29°41' W 095°01'0 0.0
2018-Apr-15 23:30N 29°41' W 095°01'0 0.0
2018-Apr-15 23:00N 29°41' W 095°01'0 0.0
2018-Apr-15 22:30N 29°41' W 095°01'0 0.0
2018-Apr-15 22:00N 29°41' W 095°01'0 0.0
2018-Apr-15 21:30N 29°41' W 095°01'0 0.0
2018-Apr-15 21:00N 29°41' W 095°01'0 0.0
2018-Apr-15 20:30N 29°41' W 095°01'0 0.0
2018-Apr-15 20:00N 29°41' W 095°01'0 0.0
2018-Apr-15 19:30N 29°41' W 095°01'1 1.6
2018-Apr-15 19:00N 29°41' W 094°60'2 4.1
2018-Apr-15 18:30N 29°43' W 095°01'5 5.7
2018-Apr-15 17:41N 29°46' W 095°05'1 5.7
2018-Apr-15 17:28N 29°45' W 095°06'0 0.6
2018-Apr-15 17:00N 29°45' W 095°06'0 0.0
2018-Apr-15 16:28N 29°45' W 095°06'0 0.0
2018-Apr-15 15:59N 29°45' W 095°06'0 0.0
2018-Apr-15 15:30N 29°45' W 095°06'  

Dump ship's entire track history